createdAt,value
2022-10-04T00:01:49.781Z,7.27
2022-10-04T00:04:24.802Z,7.03
2022-10-04T00:07:00.276Z,7.23
2022-10-04T00:09:35.374Z,7.10
2022-10-04T00:12:06.944Z,7.70
2022-10-04T00:14:40.417Z,6.70
2022-10-04T00:17:15.163Z,9.33
2022-10-04T00:19:47.300Z,6.17
2022-10-04T00:22:21.513Z,7.87
2022-10-04T00:25:22.079Z,7.53
2022-10-04T00:28:44.223Z,5.90
2022-10-04T00:31:22.147Z,7.03
2022-10-04T00:33:54.118Z,7.03
2022-10-04T00:36:48.556Z,8.47
2022-10-04T00:39:42.179Z,7.13
2022-10-04T00:42:41.454Z,9.00
2022-10-04T00:45:28.827Z,9.50
2022-10-04T00:48:33.190Z,7.27
2022-10-04T00:51:08.957Z,9.43
2022-10-04T00:53:59.437Z,7.07
2022-10-04T00:56:36.195Z,5.97
2022-10-04T00:59:28.887Z,8.97
2022-10-04T01:02:03.376Z,6.37
2022-10-04T01:04:43.577Z,6.67
2022-10-04T01:07:15.456Z,7.70
2022-10-04T01:09:51.669Z,6.67
2022-10-04T01:12:38.472Z,8.53
2022-10-04T01:15:10.843Z,8.87
2022-10-04T01:17:41.207Z,8.97
2022-10-04T01:20:34.207Z,7.43
2022-10-04T01:23:05.785Z,12.03
2022-10-04T01:25:50.090Z,6.93
2022-10-04T01:28:19.272Z,6.27
2022-10-04T01:30:48.678Z,10.67
2022-10-04T01:33:17.655Z,7.20
2022-10-04T01:35:46.583Z,7.43
2022-10-04T01:38:17.527Z,7.40
2022-10-04T01:40:51.166Z,5.37
2022-10-04T01:43:25.366Z,4.23
2022-10-04T01:45:59.978Z,5.67
2022-10-04T01:48:33.829Z,4.83
2022-10-04T01:51:07.309Z,6.80
2022-10-04T01:53:44.409Z,9.73
2022-10-04T01:56:18.997Z,6.17
2022-10-04T01:58:51.497Z,8.43
2022-10-04T02:01:30.865Z,4.47
2022-10-04T02:04:03.910Z,7.60
2022-10-04T02:06:39.127Z,6.17
2022-10-04T02:09:14.006Z,7.17
2022-10-04T02:11:46.068Z,7.53
2022-10-04T02:14:18.880Z,8.57
2022-10-04T02:16:52.546Z,8.00
2022-10-04T02:19:24.337Z,6.20
2022-10-04T02:21:53.884Z,4.73
2022-10-04T02:24:24.658Z,6.77
2022-10-04T02:26:54.596Z,5.13
2022-10-04T02:29:23.781Z,5.47
2022-10-04T02:32:11.084Z,4.70
2022-10-04T02:34:42.078Z,3.50
2022-10-04T02:37:12.667Z,4.87
2022-10-04T02:39:47.162Z,7.60
2022-10-04T02:42:23.062Z,4.87
2022-10-04T02:44:58.113Z,5.70
2022-10-04T02:47:30.673Z,4.80
2022-10-04T02:50:02.297Z,6.80
2022-10-04T02:52:36.280Z,5.73
2022-10-04T02:55:11.046Z,3.57
2022-10-04T02:57:43.635Z,4.73
2022-10-04T03:00:20.296Z,4.67
2022-10-04T03:03:16.216Z,4.67
2022-10-04T03:05:49.549Z,4.50
2022-10-04T03:08:18.499Z,4.40
2022-10-04T03:10:49.321Z,4.20
2022-10-04T03:13:21.547Z,5.03
2022-10-04T03:15:51.098Z,6.20
2022-10-04T03:18:21.245Z,3.47
2022-10-04T03:20:50.307Z,5.87
2022-10-04T03:23:21.379Z,5.10
2022-10-04T03:26:01.549Z,7.37
2022-10-04T03:28:31.384Z,3.23
2022-10-04T03:31:01.196Z,4.87
2022-10-04T03:33:31.191Z,4.43
2022-10-04T03:36:02.554Z,3.57
2022-10-04T03:38:35.964Z,6.10
2022-10-04T03:41:06.473Z,4.37
2022-10-04T03:43:44.190Z,3.90
2022-10-04T03:46:14.965Z,5.40
2022-10-04T03:48:50.397Z,4.87
2022-10-04T03:51:22.716Z,5.13
2022-10-04T03:53:54.928Z,6.70
2022-10-04T03:56:28.655Z,5.80
2022-10-04T03:58:58.452Z,5.97
2022-10-04T04:01:48.685Z,5.50
2022-10-04T04:04:24.953Z,7.20
2022-10-04T04:07:03.312Z,5.87
2022-10-04T04:09:41.609Z,9.47
2022-10-04T04:12:18.325Z,7.20
2022-10-04T04:14:50.952Z,10.27
2022-10-04T04:17:35.965Z,6.93
2022-10-04T04:20:09.182Z,5.57
2022-10-04T04:22:39.364Z,7.37
2022-10-04T04:25:14.190Z,6.50
2022-10-04T04:27:48.634Z,7.30
2022-10-04T04:30:19.371Z,4.87
2022-10-04T04:32:51.673Z,6.87
2022-10-04T04:35:25.594Z,5.90
2022-10-04T04:38:15.606Z,5.93
2022-10-04T04:40:45.184Z,5.00
2022-10-04T04:43:20.636Z,7.23
2022-10-04T04:46:08.467Z,5.10
2022-10-04T04:48:40.043Z,6.60
2022-10-04T04:51:09.327Z,7.93
2022-10-04T04:53:40.305Z,7.63
2022-10-04T04:56:21.698Z,6.43
2022-10-04T04:58:53.719Z,8.40
2022-10-04T05:01:27.065Z,6.17
2022-10-04T05:04:03.614Z,4.57
2022-10-04T05:06:34.477Z,8.47
2022-10-04T05:09:06.740Z,7.77
2022-10-04T05:11:39.110Z,8.53
2022-10-04T05:14:12.224Z,6.67
2022-10-04T05:16:45.303Z,7.50
2022-10-04T05:19:21.802Z,7.03
2022-10-04T05:21:53.433Z,5.17
2022-10-04T05:24:26.981Z,3.93
2022-10-04T05:26:58.425Z,6.10
2022-10-04T05:29:32.671Z,4.30
2022-10-04T05:32:13.686Z,5.20
2022-10-04T05:34:45.595Z,4.97
2022-10-04T05:37:31.421Z,8.10
2022-10-04T05:40:07.831Z,3.93
2022-10-04T05:42:45.558Z,10.40
2022-10-04T05:45:20.258Z,8.30
2022-10-04T05:47:51.914Z,3.30
2022-10-04T05:50:27.870Z,7.47
2022-10-04T05:53:16.363Z,4.97
2022-10-04T05:55:53.892Z,7.80
2022-10-04T05:58:38.587Z,6.40
2022-10-04T06:01:26.026Z,4.63
2022-10-04T06:04:26.319Z,4.70
2022-10-04T06:07:00.885Z,4.87
2022-10-04T06:09:48.478Z,6.03
2022-10-04T06:12:30.474Z,4.60
2022-10-04T06:15:16.588Z,5.53
2022-10-04T06:18:05.349Z,7.80
2022-10-04T06:20:55.238Z,6.43
2022-10-04T06:23:28.078Z,6.60
2022-10-04T06:26:14.801Z,6.30
2022-10-04T06:29:14.520Z,4.73
2022-10-04T06:32:42.637Z,6.43
2022-10-04T06:36:05.638Z,5.13
2022-10-04T06:39:09.269Z,5.20
2022-10-04T06:42:05.277Z,6.63
2022-10-04T06:45:21.867Z,6.27
2022-10-04T06:48:08.278Z,4.47
2022-10-04T06:50:50.119Z,6.80
2022-10-04T06:53:32.028Z,4.63
2022-10-04T06:56:20.751Z,6.77
2022-10-04T06:59:14.508Z,5.50
2022-10-04T07:01:51.958Z,6.07
2022-10-04T07:04:55.776Z,5.77
2022-10-04T07:07:36.542Z,4.07
2022-10-04T07:10:32.598Z,3.43
2022-10-04T07:13:15.141Z,5.03
2022-10-04T07:15:51.000Z,4.40
2022-10-04T07:18:25.966Z,6.47
2022-10-04T07:21:04.863Z,4.57
2022-10-04T07:23:42.064Z,6.47
2022-10-04T07:26:24.528Z,6.73
2022-10-04T07:29:14.973Z,5.30
2022-10-04T07:31:46.204Z,4.27
2022-10-04T07:34:20.422Z,4.43
2022-10-04T07:36:53.663Z,6.53
2022-10-04T07:39:29.711Z,6.17
2022-10-04T07:42:08.173Z,5.83
2022-10-04T07:44:39.945Z,3.30
2022-10-04T07:47:20.534Z,2.73
2022-10-04T07:49:51.735Z,4.50
2022-10-04T07:52:36.583Z,4.23
2022-10-04T07:55:20.028Z,4.87
2022-10-04T07:57:59.892Z,4.77
2022-10-04T08:00:38.958Z,4.10
2022-10-04T08:03:22.818Z,4.33
2022-10-04T08:05:57.268Z,3.73
2022-10-04T08:08:42.133Z,7.33
2022-10-04T08:11:23.869Z,3.60
2022-10-04T08:14:01.251Z,4.83
2022-10-04T08:16:38.584Z,3.40
2022-10-04T08:19:36.466Z,3.10
2022-10-04T08:22:16.061Z,3.37
2022-10-04T08:24:57.617Z,4.23
2022-10-04T08:28:14.903Z,6.23
2022-10-04T08:31:12.607Z,4.07
2022-10-04T08:33:57.717Z,5.27
2022-10-04T08:36:42.903Z,4.53
2022-10-04T08:39:25.863Z,3.07
2022-10-04T08:42:19.253Z,2.90
2022-10-04T08:45:35.094Z,4.90
2022-10-04T08:48:50.660Z,3.57
2022-10-04T08:51:58.335Z,4.53
2022-10-04T08:55:37.213Z,4.33
2022-10-04T08:58:36.900Z,4.43
2022-10-04T09:01:29.669Z,2.30
2022-10-04T09:04:38.096Z,3.97
2022-10-04T09:07:25.374Z,3.50
2022-10-04T09:10:25.371Z,3.13
2022-10-04T09:13:06.174Z,2.87
2022-10-04T09:15:53.590Z,1.80
2022-10-04T09:18:50.894Z,4.10
2022-10-04T09:21:45.134Z,2.57
2022-10-04T09:24:53.695Z,3.13
2022-10-04T09:27:54.645Z,2.00
2022-10-04T09:30:32.447Z,2.43
2022-10-04T09:33:33.420Z,2.17
2022-10-04T09:36:32.099Z,2.40
2022-10-04T09:39:34.536Z,2.20
2022-10-04T09:42:35.256Z,4.23
2022-10-04T09:45:27.773Z,4.27
2022-10-04T09:48:18.896Z,2.30
2022-10-04T09:51:31.097Z,2.43
2022-10-04T09:54:21.776Z,3.50
2022-10-04T09:57:15.696Z,2.73
2022-10-04T09:59:59.734Z,5.83
2022-10-04T10:03:02.178Z,3.20
2022-10-04T10:06:04.704Z,4.27
2022-10-04T10:08:44.454Z,3.37
2022-10-04T10:11:42.732Z,2.47
2022-10-04T10:15:09.420Z,4.33
2022-10-04T10:17:45.433Z,3.33
2022-10-04T10:20:50.740Z,2.20
2022-10-04T10:27:04.380Z,5.63
2022-10-04T10:29:48.453Z,4.20
2022-10-04T10:32:39.312Z,3.00
2022-10-04T10:35:31.485Z,1.77
2022-10-04T10:38:25.053Z,4.30
2022-10-04T10:41:19.641Z,4.23
2022-10-04T10:44:22.976Z,1.83
2022-10-04T10:47:05.774Z,2.53
2022-10-04T10:49:54.661Z,2.87
2022-10-04T10:52:55.814Z,2.50
2022-10-04T10:55:54.094Z,1.90
2022-10-04T10:58:56.325Z,5.57
2022-10-04T11:02:05.229Z,2.25
2022-10-04T11:04:50.110Z,2.10
2022-10-04T11:07:52.186Z,2.43
2022-10-04T11:10:52.009Z,2.43
2022-10-04T11:13:51.545Z,3.20
2022-10-04T11:16:44.679Z,2.00
2022-10-04T11:19:54.968Z,5.60
2022-10-04T11:23:00.857Z,2.33
2022-10-04T11:25:57.822Z,2.20
2022-10-04T11:28:38.127Z,5.82
2022-10-04T11:31:42.065Z,5.70
2022-10-04T11:34:42.420Z,6.83
2022-10-04T11:37:19.164Z,3.00
2022-10-04T11:40:07.281Z,6.97
2022-10-04T11:42:54.439Z,4.07
2022-10-04T11:45:45.877Z,4.80
2022-10-04T11:48:26.800Z,4.17
2022-10-04T11:51:31.616Z,3.10
2022-10-04T11:54:28.939Z,6.10
2022-10-04T11:57:18.419Z,4.80
2022-10-04T11:59:56.300Z,2.40
2022-10-04T12:02:58.139Z,2.93
2022-10-04T12:06:04.271Z,3.10
2022-10-04T12:08:52.599Z,5.67
2022-10-04T12:12:06.179Z,4.83
2022-10-04T12:14:53.627Z,4.87
2022-10-04T12:17:56.019Z,2.10
2022-10-04T12:20:54.817Z,3.90
2022-10-04T12:24:00.658Z,2.70
2022-10-04T12:27:09.620Z,2.43
2022-10-04T12:30:10.279Z,3.10
2022-10-04T12:32:57.792Z,2.93
2022-10-04T12:35:36.439Z,1.47
2022-10-04T12:38:40.040Z,3.13
2022-10-04T12:41:23.720Z,1.83
2022-10-04T12:44:04.438Z,2.87
2022-10-04T12:46:42.288Z,2.63
2022-10-04T12:49:23.716Z,2.33
2022-10-04T12:51:59.956Z,3.23
2022-10-04T12:54:38.281Z,4.67
2022-10-04T12:57:29.962Z,3.73
2022-10-04T13:00:08.118Z,5.73
2022-10-04T13:02:55.947Z,4.17
2022-10-04T13:05:32.988Z,3.53
2022-10-04T13:08:32.037Z,5.47
2022-10-04T13:11:43.466Z,5.73
2022-10-04T13:14:45.467Z,3.87
2022-10-04T13:17:35.385Z,3.33
2022-10-04T13:20:41.174Z,2.73
2022-10-04T13:23:23.720Z,3.80
2022-10-04T13:26:17.482Z,1.93
2022-10-04T13:28:56.751Z,4.40
2022-10-04T13:31:35.352Z,3.70
2022-10-04T13:34:17.160Z,2.67
2022-10-04T13:37:08.523Z,3.10
2022-10-04T13:39:53.316Z,3.20
2022-10-04T13:42:59.400Z,5.33
2022-10-04T13:45:43.002Z,5.53
2022-10-04T13:48:43.640Z,3.17
2022-10-04T13:51:41.388Z,2.97
2022-10-04T13:54:46.600Z,2.30
2022-10-04T13:57:25.643Z,2.13
2022-10-04T14:00:04.603Z,2.50
2022-10-04T14:03:19.666Z,4.60
2022-10-04T14:06:34.240Z,3.50
2022-10-04T14:09:38.409Z,2.83
2022-10-04T14:12:54.640Z,3.33
2022-10-04T14:15:53.310Z,2.47
2022-10-04T14:19:00.329Z,4.63
2022-10-04T14:22:08.267Z,5.60
2022-10-04T14:25:10.388Z,3.10
2022-10-04T14:28:18.629Z,3.53
2022-10-04T14:31:08.353Z,3.53
2022-10-04T14:34:17.739Z,4.07
2022-10-04T14:37:24.839Z,2.13
2022-10-04T14:40:15.908Z,3.27
2022-10-04T14:43:14.268Z,3.87
2022-10-04T14:46:14.169Z,2.73
2022-10-04T14:48:59.948Z,3.27
2022-10-04T14:51:57.166Z,2.33
2022-10-04T14:54:44.069Z,2.60
2022-10-04T14:57:21.367Z,3.00
2022-10-04T15:00:20.008Z,4.27
2022-10-04T15:03:19.248Z,3.07
2022-10-04T15:06:30.080Z,2.40
2022-10-04T15:09:15.278Z,2.23
2022-10-04T15:12:27.295Z,2.90
2022-10-04T15:15:12.330Z,2.13
2022-10-04T15:17:57.139Z,1.70
2022-10-04T15:20:32.487Z,3.87
2022-10-04T15:23:14.784Z,6.47
2022-10-04T15:25:48.423Z,2.90
2022-10-04T15:28:42.728Z,5.33
2022-10-04T15:31:21.067Z,2.70
2022-10-04T15:34:04.748Z,5.30
2022-10-04T15:36:58.693Z,3.27
2022-10-04T15:40:14.824Z,3.20
2022-10-04T15:43:19.744Z,5.83
2022-10-04T15:46:03.852Z,3.30
2022-10-04T15:48:52.770Z,5.73
2022-10-04T15:51:43.420Z,3.90
2022-10-04T15:54:35.659Z,3.43
2022-10-04T15:57:21.286Z,7.93
2022-10-04T15:59:57.677Z,3.20
2022-10-04T16:03:10.131Z,5.10
2022-10-04T16:05:46.226Z,5.10
2022-10-04T16:08:58.493Z,4.83
2022-10-04T16:11:48.134Z,4.73
2022-10-04T17:27:14.108Z,5.90
2022-10-04T17:30:03.826Z,9.50
2022-10-04T17:32:41.115Z,9.27
2022-10-04T17:35:40.305Z,8.27
2022-10-04T17:38:17.697Z,8.20
2022-10-04T17:40:56.012Z,13.67
2022-10-04T17:43:34.327Z,7.83
2022-10-04T17:46:23.024Z,6.33
2022-10-04T17:49:17.828Z,5.73
2022-10-04T17:52:10.747Z,10.13
2022-10-04T17:55:05.198Z,9.30
2022-10-04T17:57:47.525Z,8.33
2022-10-04T18:00:24.161Z,7.53
2022-10-04T18:03:13.636Z,12.73
2022-10-04T18:05:51.742Z,6.93
2022-10-04T18:08:29.802Z,9.00
2022-10-04T18:11:03.857Z,9.50
2022-10-04T18:13:38.842Z,9.17
2022-10-04T18:16:22.766Z,8.20
2022-10-04T18:18:52.744Z,7.27
2022-10-04T18:21:28.961Z,7.00
2022-10-04T18:24:00.913Z,7.70
2022-10-04T18:26:33.272Z,7.43
2022-10-04T18:29:04.404Z,7.53
2022-10-04T18:31:38.756Z,6.73
2022-10-04T18:34:23.783Z,6.83
2022-10-04T18:36:57.937Z,7.63
2022-10-04T18:39:27.513Z,8.27
2022-10-04T18:42:01.971Z,6.83
2022-10-04T18:44:44.936Z,9.07
2022-10-04T18:47:29.361Z,10.13
2022-10-04T18:50:04.603Z,9.17
2022-10-04T18:52:45.422Z,8.13
2022-10-04T18:55:30.542Z,9.80
2022-10-04T18:58:29.041Z,7.83
2022-10-04T19:01:27.319Z,8.37
2022-10-04T19:04:04.983Z,10.77
2022-10-04T19:06:38.341Z,9.87
2022-10-04T19:09:18.731Z,12.53
2022-10-04T19:14:57.719Z,8.70
2022-10-04T19:17:35.586Z,11.77
2022-10-04T19:20:18.940Z,8.27
2022-10-04T19:22:57.827Z,11.57
2022-10-04T19:25:39.451Z,8.17
2022-10-04T19:28:15.592Z,10.00
2022-10-04T19:31:07.476Z,12.00
2022-10-04T19:33:49.327Z,8.70
2022-10-04T19:36:46.810Z,11.80
2022-10-04T19:39:32.372Z,10.87
2022-10-04T19:42:05.904Z,10.03
2022-10-04T19:44:59.398Z,11.00
2022-10-04T19:47:43.945Z,11.37
2022-10-04T19:50:24.210Z,11.30
2022-10-04T19:53:00.132Z,10.27
2022-10-04T19:55:44.894Z,13.43
2022-10-04T19:58:27.772Z,11.23
2022-10-04T20:00:58.597Z,11.80
2022-10-04T20:03:29.929Z,13.40
2022-10-04T20:06:02.051Z,9.10
2022-10-04T20:08:54.794Z,11.53
2022-10-04T20:11:29.829Z,13.53
2022-10-04T20:14:34.380Z,11.57
2022-10-04T20:17:05.275Z,10.40
2022-10-04T20:19:43.683Z,11.63
2022-10-04T20:22:31.315Z,11.20
2022-10-04T20:25:02.292Z,11.27
2022-10-04T20:28:03.919Z,11.47
2022-10-04T20:30:54.898Z,13.60
2022-10-04T20:33:46.306Z,12.93
2022-10-04T21:00:18.014Z,11.23
2022-10-04T21:06:03.376Z,9.43
2022-10-04T21:08:35.342Z,9.67
2022-10-04T21:11:20.927Z,15.63
2022-10-04T21:14:00.948Z,14.33
2022-10-04T21:17:01.447Z,10.60
2022-10-04T21:30:31.576Z,13.57
2022-10-04T21:39:36.262Z,10.30
2022-10-04T21:42:09.253Z,13.90
2022-10-04T21:44:40.099Z,15.43
2022-10-04T21:47:10.322Z,11.37
2022-10-04T21:49:40.570Z,12.53
2022-10-04T21:52:21.752Z,11.33
2022-10-04T21:54:51.942Z,13.17
2022-10-04T21:57:25.278Z,15.57
2022-10-04T21:59:55.439Z,11.87
2022-10-04T22:02:30.982Z,14.10
2022-10-04T22:05:01.199Z,11.90
2022-10-04T22:11:09.557Z,13.00
2022-10-04T22:13:39.627Z,11.30
2022-10-04T22:16:10.873Z,16.53
2022-10-04T22:18:40.176Z,12.53
2022-10-04T22:21:09.701Z,12.63
2022-10-04T22:23:42.994Z,14.67
2022-10-04T22:26:14.075Z,11.07
2022-10-04T22:28:46.372Z,15.13
2022-10-04T22:31:17.689Z,11.57
2022-10-04T22:33:48.281Z,13.43
2022-10-04T22:36:20.604Z,12.47
2022-10-04T22:38:57.661Z,11.53
2022-10-04T22:41:33.288Z,12.80
2022-10-04T22:44:11.935Z,12.00
2022-10-04T22:46:44.121Z,12.87
2022-10-04T22:49:15.157Z,15.10
2022-10-04T22:51:46.550Z,10.43
2022-10-04T22:54:19.528Z,11.67
2022-10-04T22:56:49.621Z,12.20
2022-10-04T22:59:21.853Z,13.27
2022-10-04T23:01:51.702Z,11.77
2022-10-04T23:04:24.086Z,12.93
2022-10-04T23:06:54.354Z,10.13
2022-10-04T23:09:25.188Z,13.43
2022-10-04T23:11:54.678Z,12.77
2022-10-04T23:14:23.869Z,16.20
2022-10-04T23:16:53.039Z,12.23
2022-10-04T23:19:22.090Z,13.77
2022-10-04T23:21:52.427Z,11.97
2022-10-04T23:24:23.446Z,10.90
2022-10-04T23:26:56.682Z,9.67
2022-10-04T23:29:29.232Z,11.90
2022-10-04T23:31:58.952Z,10.43
2022-10-04T23:34:32.062Z,10.90
2022-10-04T23:37:01.382Z,14.67
2022-10-04T23:39:34.062Z,13.00
2022-10-04T23:42:12.922Z,12.37
2022-10-04T23:44:42.078Z,12.80
2022-10-04T23:47:14.868Z,12.80
2022-10-04T23:49:44.701Z,11.30
2022-10-04T23:52:19.842Z,13.87
2022-10-04T23:54:51.101Z,14.63
2022-10-04T23:57:24.922Z,12.37
2022-10-04T23:59:54.376Z,14.20
